sensor_id;sensor_type;location;lat;lon;timestamp;P1;durP1;ratioP1;P2;durP2;ratioP2
47912;SDS011;33676;51.006;17.180;2023-03-22T00:02:20;38.70;;;29.70;;
47912;SDS011;33676;51.006;17.180;2023-03-22T00:04:50;43.00;;;33.90;;
47912;SDS011;33676;51.006;17.180;2023-03-22T00:07:19;41.40;;;35.70;;
47912;SDS011;33676;51.006;17.180;2023-03-22T00:09:47;44.10;;;35.20;;
47912;SDS011;33676;51.006;17.180;2023-03-22T00:12:16;43.40;;;34.30;;
47912;SDS011;33676;51.006;17.180;2023-03-22T00:14:45;38.50;;;32.40;;
47912;SDS011;33676;51.006;17.180;2023-03-22T00:17:14;44.20;;;35.30;;
47912;SDS011;33676;51.006;17.180;2023-03-22T00:19:42;41.80;;;35.20;;
47912;SDS011;33676;51.006;17.180;2023-03-22T00:22:12;40.90;;;31.80;;
47912;SDS011;33676;51.006;17.180;2023-03-22T00:24:41;43.20;;;31.70;;
47912;SDS011;33676;51.006;17.180;2023-03-22T00:27:10;45.80;;;34.70;;
47912;SDS011;33676;51.006;17.180;2023-03-22T00:29:38;38.90;;;31.70;;
47912;SDS011;33676;51.006;17.180;2023-03-22T00:32:06;40.90;;;31.90;;
47912;SDS011;33676;51.006;17.180;2023-03-22T00:34:35;42.80;;;32.80;;
47912;SDS011;33676;51.006;17.180;2023-03-22T00:37:03;45.90;;;33.20;;
47912;SDS011;33676;51.006;17.180;2023-03-22T00:39:32;41.90;;;33.40;;
47912;SDS011;33676;51.006;17.180;2023-03-22T00:42:02;44.10;;;34.50;;
47912;SDS011;33676;51.006;17.180;2023-03-22T00:44:32;38.60;;;32.00;;
47912;SDS011;33676;51.006;17.180;2023-03-22T00:47:00;40.70;;;31.50;;
47912;SDS011;33676;51.006;17.180;2023-03-22T00:49:28;37.80;;;29.20;;
47912;SDS011;33676;51.006;17.180;2023-03-22T00:51:58;35.20;;;29.60;;
47912;SDS011;33676;51.006;17.180;2023-03-22T00:54:26;34.80;;;27.20;;
47912;SDS011;33676;51.006;17.180;2023-03-22T00:56:54;40.80;;;30.90;;
47912;SDS011;33676;51.006;17.180;2023-03-22T00:59:23;40.20;;;32.40;;
47912;SDS011;33676;51.006;17.180;2023-03-22T01:01:51;40.10;;;30.10;;
47912;SDS011;33676;51.006;17.180;2023-03-22T01:04:20;31.10;;;24.70;;
47912;SDS011;33676;51.006;17.180;2023-03-22T01:06:53;32.60;;;27.40;;
47912;SDS011;33676;51.006;17.180;2023-03-22T01:09:26;34.40;;;27.10;;
47912;SDS011;33676;51.006;17.180;2023-03-22T01:12:00;32.20;;;27.80;;
47912;SDS011;33676;51.006;17.180;2023-03-22T01:14:29;32.60;;;26.50;;
47912;SDS011;33676;51.006;17.180;2023-03-22T01:16:58;34.40;;;26.10;;
47912;SDS011;33676;51.006;17.180;2023-03-22T01:19:27;36.10;;;27.40;;
47912;SDS011;33676;51.006;17.180;2023-03-22T01:21:55;28.80;;;24.90;;
47912;SDS011;33676;51.006;17.180;2023-03-22T01:24:24;33.70;;;29.60;;
47912;SDS011;33676;51.006;17.180;2023-03-22T01:26:53;35.30;;;26.00;;
47912;SDS011;33676;51.006;17.180;2023-03-22T01:29:22;33.20;;;27.60;;
47912;SDS011;33676;51.006;17.180;2023-03-22T01:31:51;31.00;;;25.50;;
47912;SDS011;33676;51.006;17.180;2023-03-22T01:34:20;29.80;;;25.50;;
47912;SDS011;33676;51.006;17.180;2023-03-22T01:36:49;33.40;;;25.30;;
47912;SDS011;33676;51.006;17.180;2023-03-22T01:39:17;31.90;;;26.10;;
47912;SDS011;33676;51.006;17.180;2023-03-22T01:41:46;33.30;;;26.90;;
47912;SDS011;33676;51.006;17.180;2023-03-22T01:44:17;33.40;;;26.00;;
47912;SDS011;33676;51.006;17.180;2023-03-22T01:46:50;32.20;;;25.20;;
47912;SDS011;33676;51.006;17.180;2023-03-22T01:49:24;35.60;;;27.80;;
47912;SDS011;33676;51.006;17.180;2023-03-22T01:51:58;34.00;;;26.10;;
47912;SDS011;33676;51.006;17.180;2023-03-22T01:54:36;32.50;;;27.20;;
47912;SDS011;33676;51.006;17.180;2023-03-22T01:57:10;31.40;;;25.70;;
47912;SDS011;33676;51.006;17.180;2023-03-22T01:59:39;29.10;;;25.00;;
47912;SDS011;33676;51.006;17.180;2023-03-22T02:02:10;29.50;;;26.00;;
47912;SDS011;33676;51.006;17.180;2023-03-22T02:04:42;30.20;;;24.20;;
47912;SDS011;33676;51.006;17.180;2023-03-22T02:07:12;29.70;;;24.60;;
47912;SDS011;33676;51.006;17.180;2023-03-22T02:09:43;30.20;;;24.20;;
47912;SDS011;33676;51.006;17.180;2023-03-22T02:27:14;29.90;;;24.50;;
47912;SDS011;33676;51.006;17.180;2023-03-22T02:30:10;27.30;;;20.00;;
47912;SDS011;33676;51.006;17.180;2023-03-22T02:32:52;31.40;;;25.00;;
47912;SDS011;33676;51.006;17.180;2023-03-22T02:35:35;26.30;;;21.30;;
47912;SDS011;33676;51.006;17.180;2023-03-22T02:38:46;25.20;;;22.50;;
47912;SDS011;33676;51.006;17.180;2023-03-22T02:47:35;27.40;;;21.50;;
47912;SDS011;33676;51.006;17.180;2023-03-22T02:50:29;29.00;;;23.20;;
47912;SDS011;33676;51.006;17.180;2023-03-22T02:53:19;29.20;;;24.50;;
47912;SDS011;33676;51.006;17.180;2023-03-22T02:56:02;25.30;;;21.70;;
47912;SDS011;33676;51.006;17.180;2023-03-22T02:58:39;29.80;;;23.90;;
47912;SDS011;33676;51.006;17.180;2023-03-22T03:01:24;30.70;;;23.20;;
47912;SDS011;33676;51.006;17.180;2023-03-22T03:03:58;29.70;;;24.60;;
47912;SDS011;33676;51.006;17.180;2023-03-22T03:06:32;31.80;;;24.80;;
47912;SDS011;33676;51.006;17.180;2023-03-22T03:09:06;29.20;;;24.50;;
47912;SDS011;33676;51.006;17.180;2023-03-22T03:11:36;28.80;;;25.50;;
47912;SDS011;33676;51.006;17.180;2023-03-22T03:14:04;29.00;;;21.40;;
47912;SDS011;33676;51.006;17.180;2023-03-22T03:16:32;26.00;;;22.30;;
47912;SDS011;33676;51.006;17.180;2023-03-22T03:19:14;27.20;;;23.40;;
47912;SDS011;33676;51.006;17.180;2023-03-22T03:22:00;33.80;;;23.70;;
47912;SDS011;33676;51.006;17.180;2023-03-22T03:25:02;24.30;;;21.00;;
47912;SDS011;33676;51.006;17.180;2023-03-22T03:27:49;26.10;;;21.80;;
47912;SDS011;33676;51.006;17.180;2023-03-22T03:30:30;32.70;;;24.70;;
47912;SDS011;33676;51.006;17.180;2023-03-22T03:33:11;26.70;;;22.60;;
47912;SDS011;33676;51.006;17.180;2023-03-22T03:35:54;27.30;;;22.30;;
47912;SDS011;33676;51.006;17.180;2023-03-22T03:38:30;29.90;;;23.20;;
47912;SDS011;33676;51.006;17.180;2023-03-22T03:41:34;26.20;;;23.00;;
47912;SDS011;33676;51.006;17.180;2023-03-22T03:44:03;27.40;;;22.90;;
47912;SDS011;33676;51.006;17.180;2023-03-22T03:46:33;31.00;;;24.10;;
47912;SDS011;33676;51.006;17.180;2023-03-22T03:49:01;30.80;;;24.70;;
47912;SDS011;33676;51.006;17.180;2023-03-22T03:51:31;26.60;;;22.00;;
47912;SDS011;33676;51.006;17.180;2023-03-22T03:54:01;28.80;;;23.10;;
47912;SDS011;33676;51.006;17.180;2023-03-22T03:56:29;25.90;;;21.10;;
47912;SDS011;33676;51.006;17.180;2023-03-22T03:58:57;25.10;;;22.10;;
47912;SDS011;33676;51.006;17.180;2023-03-22T04:01:26;36.10;;;24.70;;
47912;SDS011;33676;51.006;17.180;2023-03-22T04:03:55;29.00;;;25.10;;
47912;SDS011;33676;51.006;17.180;2023-03-22T04:06:23;26.80;;;23.30;;
47912;SDS011;33676;51.006;17.180;2023-03-22T04:08:52;30.70;;;25.00;;
47912;SDS011;33676;51.006;17.180;2023-03-22T04:11:21;34.30;;;26.50;;
47912;SDS011;33676;51.006;17.180;2023-03-22T04:13:49;31.90;;;24.40;;
47912;SDS011;33676;51.006;17.180;2023-03-22T04:16:17;34.00;;;24.70;;
47912;SDS011;33676;51.006;17.180;2023-03-22T04:18:46;29.30;;;24.70;;
47912;SDS011;33676;51.006;17.180;2023-03-22T04:21:14;26.40;;;22.80;;
47912;SDS011;33676;51.006;17.180;2023-03-22T04:23:43;28.00;;;23.00;;
47912;SDS011;33676;51.006;17.180;2023-03-22T04:26:13;33.20;;;25.50;;
47912;SDS011;33676;51.006;17.180;2023-03-22T04:28:42;25.10;;;22.10;;
47912;SDS011;33676;51.006;17.180;2023-03-22T04:31:10;29.50;;;25.40;;
47912;SDS011;33676;51.006;17.180;2023-03-22T04:33:39;28.30;;;24.90;;
47912;SDS011;33676;51.006;17.180;2023-03-22T04:36:08;24.70;;;22.10;;
47912;SDS011;33676;51.006;17.180;2023-03-22T04:38:43;29.40;;;25.60;;
47912;SDS011;33676;51.006;17.180;2023-03-22T04:41:11;30.70;;;24.00;;
47912;SDS011;33676;51.006;17.180;2023-03-22T04:43:39;30.40;;;25.80;;
47912;SDS011;33676;51.006;17.180;2023-03-22T04:46:08;28.20;;;23.10;;
47912;SDS011;33676;51.006;17.180;2023-03-22T04:48:38;30.70;;;23.40;;
47912;SDS011;33676;51.006;17.180;2023-03-22T04:51:09;27.50;;;24.20;;
47912;SDS011;33676;51.006;17.180;2023-03-22T04:53:38;26.50;;;22.10;;
47912;SDS011;33676;51.006;17.180;2023-03-22T04:56:09;25.30;;;21.20;;
47912;SDS011;33676;51.006;17.180;2023-03-22T04:58:39;29.50;;;22.90;;
47912;SDS011;33676;51.006;17.180;2023-03-22T05:01:11;27.60;;;21.90;;
47912;SDS011;33676;51.006;17.180;2023-03-22T05:03:41;26.50;;;23.20;;
47912;SDS011;33676;51.006;17.180;2023-03-22T05:06:14;27.00;;;22.60;;
47912;SDS011;33676;51.006;17.180;2023-03-22T05:08:42;30.20;;;24.20;;
47912;SDS011;33676;51.006;17.180;2023-03-22T05:11:13;26.50;;;22.90;;
47912;SDS011;33676;51.006;17.180;2023-03-22T05:13:43;26.70;;;22.00;;
47912;SDS011;33676;51.006;17.180;2023-03-22T05:16:12;27.60;;;23.30;;
47912;SDS011;33676;51.006;17.180;2023-03-22T05:18:40;31.20;;;23.80;;
47912;SDS011;33676;51.006;17.180;2023-03-22T05:21:13;30.60;;;23.70;;
47912;SDS011;33676;51.006;17.180;2023-03-22T05:23:44;31.90;;;25.20;;
47912;SDS011;33676;51.006;17.180;2023-03-22T05:26:14;29.60;;;23.90;;
47912;SDS011;33676;51.006;17.180;2023-03-22T05:28:43;28.50;;;23.80;;
47912;SDS011;33676;51.006;17.180;2023-03-22T05:31:11;30.40;;;22.90;;
47912;SDS011;33676;51.006;17.180;2023-03-22T05:33:42;29.90;;;24.00;;
47912;SDS011;33676;51.006;17.180;2023-03-22T05:36:13;33.20;;;27.50;;
47912;SDS011;33676;51.006;17.180;2023-03-22T05:38:42;31.10;;;26.10;;
47912;SDS011;33676;51.006;17.180;2023-03-22T05:41:12;26.70;;;23.30;;
47912;SDS011;33676;51.006;17.180;2023-03-22T05:43:41;28.80;;;23.40;;
47912;SDS011;33676;51.006;17.180;2023-03-22T05:46:10;28.30;;;23.60;;
47912;SDS011;33676;51.006;17.180;2023-03-22T05:48:39;28.90;;;24.00;;
47912;SDS011;33676;51.006;17.180;2023-03-22T05:51:13;29.60;;;22.90;;
47912;SDS011;33676;51.006;17.180;2023-03-22T05:53:47;28.70;;;24.20;;
47912;SDS011;33676;51.006;17.180;2023-03-22T05:56:15;31.90;;;23.70;;
47912;SDS011;33676;51.006;17.180;2023-03-22T05:58:43;28.20;;;24.90;;
47912;SDS011;33676;51.006;17.180;2023-03-22T06:01:12;27.40;;;23.30;;
47912;SDS011;33676;51.006;17.180;2023-03-22T06:03:43;28.50;;;24.20;;
47912;SDS011;33676;51.006;17.180;2023-03-22T06:08:41;30.70;;;24.00;;
47912;SDS011;33676;51.006;17.180;2023-03-22T06:11:09;30.10;;;23.40;;
47912;SDS011;33676;51.006;17.180;2023-03-22T06:13:38;30.70;;;25.50;;
47912;SDS011;33676;51.006;17.180;2023-03-22T06:16:06;29.50;;;24.60;;
47912;SDS011;33676;51.006;17.180;2023-03-22T06:18:35;30.00;;;24.80;;
47912;SDS011;33676;51.006;17.180;2023-03-22T06:21:04;29.10;;;23.60;;
47912;SDS011;33676;51.006;17.180;2023-03-22T06:23:32;34.30;;;24.70;;
47912;SDS011;33676;51.006;17.180;2023-03-22T06:26:01;33.60;;;26.10;;
47912;SDS011;33676;51.006;17.180;2023-03-22T06:28:29;29.60;;;24.50;;
47912;SDS011;33676;51.006;17.180;2023-03-22T06:31:04;24.10;;;21.50;;
47912;SDS011;33676;51.006;17.180;2023-03-22T06:33:34;30.20;;;25.00;;
47912;SDS011;33676;51.006;17.180;2023-03-22T06:36:04;23.60;;;21.10;;
47912;SDS011;33676;51.006;17.180;2023-03-22T06:38:33;25.20;;;22.60;;
47912;SDS011;33676;51.006;17.180;2023-03-22T06:41:01;31.10;;;26.10;;
47912;SDS011;33676;51.006;17.180;2023-03-22T06:43:29;30.60;;;25.60;;
47912;SDS011;33676;51.006;17.180;2023-03-22T06:45:58;31.60;;;27.30;;
47912;SDS011;33676;51.006;17.180;2023-03-22T06:50:54;32.10;;;28.80;;
47912;SDS011;33676;51.006;17.180;2023-03-22T06:53:23;22.30;;;19.90;;
47912;SDS011;33676;51.006;17.180;2023-03-22T06:55:51;30.20;;;25.20;;
47912;SDS011;33676;51.006;17.180;2023-03-22T07:03:06;27.40;;;24.50;;
47912;SDS011;33676;51.006;17.180;2023-03-22T07:05:34;28.30;;;23.10;;
47912;SDS011;33676;51.006;17.180;2023-03-22T07:08:03;27.90;;;24.30;;
47912;SDS011;33676;51.006;17.180;2023-03-22T07:10:31;26.30;;;23.50;;
47912;SDS011;33676;51.006;17.180;2023-03-22T07:12:59;25.70;;;22.60;;
47912;SDS011;33676;51.006;17.180;2023-03-22T07:15:30;31.00;;;27.70;;
47912;SDS011;33676;51.006;17.180;2023-03-22T07:18:00;28.70;;;24.20;;
47912;SDS011;33676;51.006;17.180;2023-03-22T07:20:29;26.00;;;23.30;;
47912;SDS011;33676;51.006;17.180;2023-03-22T07:22:59;26.80;;;22.60;;
47912;SDS011;33676;51.006;17.180;2023-03-22T07:25:28;27.00;;;23.80;;
47912;SDS011;33676;51.006;17.180;2023-03-22T07:27:58;25.80;;;23.20;;
47912;SDS011;33676;51.006;17.180;2023-03-22T07:30:27;26.70;;;22.60;;
47912;SDS011;33676;51.006;17.180;2023-03-22T07:32:55;23.90;;;21.40;;
47912;SDS011;33676;51.006;17.180;2023-03-22T07:35:24;25.80;;;23.20;;
47912;SDS011;33676;51.006;17.180;2023-03-22T07:37:57;25.70;;;23.10;;
47912;SDS011;33676;51.006;17.180;2023-03-22T07:40:26;23.80;;;21.40;;
47912;SDS011;33676;51.006;17.180;2023-03-22T07:42:54;27.20;;;22.10;;
47912;SDS011;33676;51.006;17.180;2023-03-22T07:45:24;26.40;;;23.60;;
47912;SDS011;33676;51.006;17.180;2023-03-22T07:47:53;29.80;;;23.70;;
47912;SDS011;33676;51.006;17.180;2023-03-22T07:50:21;25.80;;;23.10;;
47912;SDS011;33676;51.006;17.180;2023-03-22T07:52:50;27.00;;;22.60;;
47912;SDS011;33676;51.006;17.180;2023-03-22T07:55:18;26.20;;;22.60;;
47912;SDS011;33676;51.006;17.180;2023-03-22T07:57:46;24.50;;;21.90;;
47912;SDS011;33676;51.006;17.180;2023-03-22T08:00:15;24.50;;;22.10;;
47912;SDS011;33676;51.006;17.180;2023-03-22T08:02:44;25.80;;;23.20;;
47912;SDS011;33676;51.006;17.180;2023-03-22T08:05:13;25.50;;;22.90;;
47912;SDS011;33676;51.006;17.180;2023-03-22T08:07:41;24.10;;;21.70;;
47912;SDS011;33676;51.006;17.180;2023-03-22T08:10:10;23.50;;;20.90;;
47912;SDS011;33676;51.006;17.180;2023-03-22T08:12:39;26.00;;;23.20;;
47912;SDS011;33676;51.006;17.180;2023-03-22T08:15:18;24.10;;;21.60;;
47912;SDS011;33676;51.006;17.180;2023-03-22T08:17:49;24.80;;;22.30;;
47912;SDS011;33676;51.006;17.180;2023-03-22T08:20:18;21.40;;;19.30;;
47912;SDS011;33676;51.006;17.180;2023-03-22T08:22:46;22.90;;;20.50;;
47912;SDS011;33676;51.006;17.180;2023-03-22T08:25:15;22.00;;;19.70;;
47912;SDS011;33676;51.006;17.180;2023-03-22T08:27:43;22.40;;;20.10;;
47912;SDS011;33676;51.006;17.180;2023-03-22T08:30:13;20.40;;;18.40;;
47912;SDS011;33676;51.006;17.180;2023-03-22T08:32:42;19.90;;;18.10;;
47912;SDS011;33676;51.006;17.180;2023-03-22T08:35:11;19.80;;;17.70;;
47912;SDS011;33676;51.006;17.180;2023-03-22T08:37:39;20.30;;;18.10;;
47912;SDS011;33676;51.006;17.180;2023-03-22T08:40:09;19.80;;;17.70;;
47912;SDS011;33676;51.006;17.180;2023-03-22T08:42:38;18.50;;;16.70;;
47912;SDS011;33676;51.006;17.180;2023-03-22T08:45:07;18.30;;;16.50;;
47912;SDS011;33676;51.006;17.180;2023-03-22T08:47:38;17.70;;;16.10;;
47912;SDS011;33676;51.006;17.180;2023-03-22T08:50:08;19.60;;;17.80;;
47912;SDS011;33676;51.006;17.180;2023-03-22T08:52:38;18.70;;;16.70;;
47912;SDS011;33676;51.006;17.180;2023-03-22T08:55:07;19.40;;;17.60;;
47912;SDS011;33676;51.006;17.180;2023-03-22T08:57:36;18.40;;;16.60;;
47912;SDS011;33676;51.006;17.180;2023-03-22T09:00:06;19.70;;;17.90;;
47912;SDS011;33676;51.006;17.180;2023-03-22T09:02:45;20.40;;;18.20;;
47912;SDS011;33676;51.006;17.180;2023-03-22T09:05:15;24.20;;;21.70;;
47912;SDS011;33676;51.006;17.180;2023-03-22T09:07:43;20.20;;;18.10;;
47912;SDS011;33676;51.006;17.180;2023-03-22T09:10:11;19.90;;;18.10;;
47912;SDS011;33676;51.006;17.180;2023-03-22T09:12:40;17.30;;;15.70;;
47912;SDS011;33676;51.006;17.180;2023-03-22T09:15:09;17.70;;;16.10;;
47912;SDS011;33676;51.006;17.180;2023-03-22T09:17:37;18.30;;;16.60;;
47912;SDS011;33676;51.006;17.180;2023-03-22T09:20:06;17.90;;;16.30;;
47912;SDS011;33676;51.006;17.180;2023-03-22T09:22:40;17.60;;;15.80;;
47912;SDS011;33676;51.006;17.180;2023-03-22T09:25:09;18.00;;;16.30;;
47912;SDS011;33676;51.006;17.180;2023-03-22T09:27:56;19.30;;;17.60;;
47912;SDS011;33676;51.006;17.180;2023-03-22T09:32:54;19.20;;;17.20;;
47912;SDS011;33676;51.006;17.180;2023-03-22T09:35:23;19.50;;;17.60;;
47912;SDS011;33676;51.006;17.180;2023-03-22T09:37:52;18.50;;;16.80;;
47912;SDS011;33676;51.006;17.180;2023-03-22T09:40:28;18.20;;;16.60;;
47912;SDS011;33676;51.006;17.180;2023-03-22T09:43:02;18.20;;;16.50;;
47912;SDS011;33676;51.006;17.180;2023-03-22T09:45:38;18.60;;;16.90;;
47912;SDS011;33676;51.006;17.180;2023-03-22T09:51:46;18.50;;;16.80;;
47912;SDS011;33676;51.006;17.180;2023-03-22T09:57:36;18.90;;;17.20;;
47912;SDS011;33676;51.006;17.180;2023-03-22T10:00:23;18.20;;;16.50;;
47912;SDS011;33676;51.006;17.180;2023-03-22T10:10:47;18.20;;;16.60;;
47912;SDS011;33676;51.006;17.180;2023-03-22T10:13:40;17.50;;;15.90;;
47912;SDS011;33676;51.006;17.180;2023-03-22T10:16:24;17.10;;;15.50;;
47912;SDS011;33676;51.006;17.180;2023-03-22T10:19:02;18.20;;;16.40;;
47912;SDS011;33676;51.006;17.180;2023-03-22T10:31:12;18.50;;;16.70;;
47912;SDS011;33676;51.006;17.180;2023-03-22T10:34:01;17.00;;;15.40;;
47912;SDS011;33676;51.006;17.180;2023-03-22T10:36:38;18.20;;;16.40;;
47912;SDS011;33676;51.006;17.180;2023-03-22T10:42:10;18.20;;;15.90;;
47912;SDS011;33676;51.006;17.180;2023-03-22T10:44:49;16.90;;;15.40;;
47912;SDS011;33676;51.006;17.180;2023-03-22T10:47:28;16.10;;;14.70;;
47912;SDS011;33676;51.006;17.180;2023-03-22T10:50:00;16.40;;;15.00;;
47912;SDS011;33676;51.006;17.180;2023-03-22T10:53:02;16.00;;;14.60;;
47912;SDS011;33676;51.006;17.180;2023-03-22T10:55:39;16.20;;;14.70;;
47912;SDS011;33676;51.006;17.180;2023-03-22T10:58:15;13.30;;;12.20;;
47912;SDS011;33676;51.006;17.180;2023-03-22T11:00:50;12.60;;;11.60;;
47912;SDS011;33676;51.006;17.180;2023-03-22T11:03:38;12.70;;;11.60;;
47912;SDS011;33676;51.006;17.180;2023-03-22T11:06:11;13.50;;;12.30;;
47912;SDS011;33676;51.006;17.180;2023-03-22T11:08:49;13.50;;;12.40;;
47912;SDS011;33676;51.006;17.180;2023-03-22T11:11:22;12.60;;;11.50;;
47912;SDS011;33676;51.006;17.180;2023-03-22T11:14:14;12.60;;;11.60;;
47912;SDS011;33676;51.006;17.180;2023-03-22T11:16:55;12.70;;;11.70;;
47912;SDS011;33676;51.006;17.180;2023-03-22T11:19:31;13.50;;;12.30;;
47912;SDS011;33676;51.006;17.180;2023-03-22T11:22:05;13.60;;;12.40;;
47912;SDS011;33676;51.006;17.180;2023-03-22T11:24:45;12.80;;;11.70;;
47912;SDS011;33676;51.006;17.180;2023-03-22T11:33:15;12.50;;;11.50;;
47912;SDS011;33676;51.006;17.180;2023-03-22T11:35:52;10.30;;;9.50;;
47912;SDS011;33676;51.006;17.180;2023-03-22T11:38:35;10.40;;;9.50;;
47912;SDS011;33676;51.006;17.180;2023-03-22T11:41:26;10.70;;;9.90;;
47912;SDS011;33676;51.006;17.180;2023-03-22T11:44:00;10.60;;;9.70;;
47912;SDS011;33676;51.006;17.180;2023-03-22T11:46:32;8.90;;;8.30;;
47912;SDS011;33676;51.006;17.180;2023-03-22T11:49:07;10.30;;;9.40;;
47912;SDS011;33676;51.006;17.180;2023-03-22T11:51:41;10.30;;;9.50;;
47912;SDS011;33676;51.006;17.180;2023-03-22T11:54:30;10.90;;;9.80;;
47912;SDS011;33676;51.006;17.180;2023-03-22T11:57:03;9.70;;;8.90;;
47912;SDS011;33676;51.006;17.180;2023-03-22T12:02:30;7.60;;;7.00;;
47912;SDS011;33676;51.006;17.180;2023-03-22T12:08:20;6.10;;;5.50;;
47912;SDS011;33676;51.006;17.180;2023-03-22T12:11:24;5.60;;;5.10;;
47912;SDS011;33676;51.006;17.180;2023-03-22T12:14:32;5.60;;;5.20;;
47912;SDS011;33676;51.006;17.180;2023-03-22T12:17:15;6.40;;;5.90;;
47912;SDS011;33676;51.006;17.180;2023-03-22T12:22:56;6.70;;;6.20;;
47912;SDS011;33676;51.006;17.180;2023-03-22T12:25:33;6.30;;;5.80;;
47912;SDS011;33676;51.006;17.180;2023-03-22T12:28:05;5.00;;;4.60;;
47912;SDS011;33676;51.006;17.180;2023-03-22T12:30:45;5.40;;;4.90;;
47912;SDS011;33676;51.006;17.180;2023-03-22T12:33:24;6.70;;;5.70;;
47912;SDS011;33676;51.006;17.180;2023-03-22T12:36:01;5.10;;;4.70;;
47912;SDS011;33676;51.006;17.180;2023-03-22T12:38:48;5.20;;;4.80;;
47912;SDS011;33676;51.006;17.180;2023-03-22T12:41:37;5.50;;;5.00;;
47912;SDS011;33676;51.006;17.180;2023-03-22T12:44:15;5.60;;;5.10;;
47912;SDS011;33676;51.006;17.180;2023-03-22T12:46:49;5.20;;;4.60;;
47912;SDS011;33676;51.006;17.180;2023-03-22T12:49:40;5.90;;;5.50;;
47912;SDS011;33676;51.006;17.180;2023-03-22T12:57:57;4.60;;;4.20;;
47912;SDS011;33676;51.006;17.180;2023-03-22T13:00:32;4.70;;;4.30;;
47912;SDS011;33676;51.006;17.180;2023-03-22T13:03:40;4.40;;;4.10;;
47912;SDS011;33676;51.006;17.180;2023-03-22T13:06:33;4.20;;;3.80;;
47912;SDS011;33676;51.006;17.180;2023-03-22T13:09:48;4.00;;;3.80;;
47912;SDS011;33676;51.006;17.180;2023-03-22T13:20:00;4.50;;;4.20;;
47912;SDS011;33676;51.006;17.180;2023-03-22T13:28:23;4.90;;;4.50;;
47912;SDS011;33676;51.006;17.180;2023-03-22T13:30:56;4.90;;;4.60;;
47912;SDS011;33676;51.006;17.180;2023-03-22T13:33:31;5.40;;;5.10;;
47912;SDS011;33676;51.006;17.180;2023-03-22T13:38:59;4.80;;;4.50;;
47912;SDS011;33676;51.006;17.180;2023-03-22T13:41:40;5.00;;;4.60;;
47912;SDS011;33676;51.006;17.180;2023-03-22T13:44:35;5.30;;;4.90;;
47912;SDS011;33676;51.006;17.180;2023-03-22T13:47:27;5.30;;;4.90;;
47912;SDS011;33676;51.006;17.180;2023-03-22T13:49:49;4.70;;;4.40;;
47912;SDS011;33676;51.006;17.180;2023-03-22T13:52:58;5.80;;;5.40;;
47912;SDS011;33676;51.006;17.180;2023-03-22T14:01:35;4.80;;;4.50;;
47912;SDS011;33676;51.006;17.180;2023-03-22T14:04:22;4.60;;;4.30;;
47912;SDS011;33676;51.006;17.180;2023-03-22T14:10:15;5.80;;;5.40;;
47912;SDS011;33676;51.006;17.180;2023-03-22T14:13:03;4.50;;;4.10;;
47912;SDS011;33676;51.006;17.180;2023-03-22T14:16:16;4.40;;;4.10;;
47912;SDS011;33676;51.006;17.180;2023-03-22T14:18:59;4.50;;;4.20;;
47912;SDS011;33676;51.006;17.180;2023-03-22T14:21:37;5.20;;;4.70;;
47912;SDS011;33676;51.006;17.180;2023-03-22T14:24:12;4.60;;;4.20;;
47912;SDS011;33676;51.006;17.180;2023-03-22T14:26:44;4.00;;;3.80;;
47912;SDS011;33676;51.006;17.180;2023-03-22T14:29:40;4.40;;;4.00;;
47912;SDS011;33676;51.006;17.180;2023-03-22T14:32:28;11.10;;;4.10;;
47912;SDS011;33676;51.006;17.180;2023-03-22T14:35:05;3.60;;;3.40;;
47912;SDS011;33676;51.006;17.180;2023-03-22T14:37:33;3.50;;;3.20;;
47912;SDS011;33676;51.006;17.180;2023-03-22T14:45:46;3.30;;;3.00;;
47912;SDS011;33676;51.006;17.180;2023-03-22T14:49:48;3.90;;;3.60;;
47912;SDS011;33676;51.006;17.180;2023-03-22T14:52:48;3.70;;;3.40;;
47912;SDS011;33676;51.006;17.180;2023-03-22T14:55:42;3.40;;;3.10;;
47912;SDS011;33676;51.006;17.180;2023-03-22T14:58:36;4.30;;;2.90;;
47912;SDS011;33676;51.006;17.180;2023-03-22T15:01:11;3.10;;;2.90;;
47912;SDS011;33676;51.006;17.180;2023-03-22T15:03:49;3.30;;;3.00;;
47912;SDS011;33676;51.006;17.180;2023-03-22T15:08:55;2.50;;;2.40;;
47912;SDS011;33676;51.006;17.180;2023-03-22T15:11:33;2.50;;;2.40;;
47912;SDS011;33676;51.006;17.180;2023-03-22T15:14:03;3.70;;;3.00;;
47912;SDS011;33676;51.006;17.180;2023-03-22T15:16:34;2.80;;;2.60;;
47912;SDS011;33676;51.006;17.180;2023-03-22T15:19:03;3.20;;;3.00;;
47912;SDS011;33676;51.006;17.180;2023-03-22T15:21:39;2.90;;;2.60;;
47912;SDS011;33676;51.006;17.180;2023-03-22T15:24:21;2.70;;;2.50;;
47912;SDS011;33676;51.006;17.180;2023-03-22T15:27:24;2.80;;;2.50;;
47912;SDS011;33676;51.006;17.180;2023-03-22T15:29:54;2.60;;;2.40;;
47912;SDS011;33676;51.006;17.180;2023-03-22T15:32:24;2.50;;;2.30;;
47912;SDS011;33676;51.006;17.180;2023-03-22T15:34:53;2.10;;;2.00;;
47912;SDS011;33676;51.006;17.180;2023-03-22T15:37:33;2.40;;;2.20;;
47912;SDS011;33676;51.006;17.180;2023-03-22T15:40:05;4.10;;;3.00;;
47912;SDS011;33676;51.006;17.180;2023-03-22T15:43:05;2.80;;;2.60;;
47912;SDS011;33676;51.006;17.180;2023-03-22T15:45:34;2.80;;;2.60;;
47912;SDS011;33676;51.006;17.180;2023-03-22T15:48:15;4.80;;;2.70;;
47912;SDS011;33676;51.006;17.180;2023-03-22T15:50:49;2.90;;;2.70;;
47912;SDS011;33676;51.006;17.180;2023-03-22T15:53:31;2.50;;;2.30;;
47912;SDS011;33676;51.006;17.180;2023-03-22T15:56:01;2.00;;;1.90;;
47912;SDS011;33676;51.006;17.180;2023-03-22T15:58:31;2.00;;;1.90;;
47912;SDS011;33676;51.006;17.180;2023-03-22T16:01:08;2.20;;;2.10;;
47912;SDS011;33676;51.006;17.180;2023-03-22T16:03:51;2.70;;;2.50;;
47912;SDS011;33676;51.006;17.180;2023-03-22T16:06:18;4.70;;;3.40;;
47912;SDS011;33676;51.006;17.180;2023-03-22T16:08:46;2.60;;;2.40;;
47912;SDS011;33676;51.006;17.180;2023-03-22T16:11:13;2.30;;;2.20;;
47912;SDS011;33676;51.006;17.180;2023-03-22T16:13:42;2.40;;;2.20;;
47912;SDS011;33676;51.006;17.180;2023-03-22T16:16:12;2.80;;;2.50;;
47912;SDS011;33676;51.006;17.180;2023-03-22T16:18:43;3.00;;;2.50;;
47912;SDS011;33676;51.006;17.180;2023-03-22T16:21:12;2.50;;;2.30;;
47912;SDS011;33676;51.006;17.180;2023-03-22T16:23:41;3.30;;;2.40;;
47912;SDS011;33676;51.006;17.180;2023-03-22T16:26:12;2.70;;;2.50;;
47912;SDS011;33676;51.006;17.180;2023-03-22T16:28:43;2.10;;;1.90;;
47912;SDS011;33676;51.006;17.180;2023-03-22T16:31:12;2.20;;;2.10;;
47912;SDS011;33676;51.006;17.180;2023-03-22T16:33:42;3.70;;;2.70;;
47912;SDS011;33676;51.006;17.180;2023-03-22T16:36:11;2.80;;;2.60;;
47912;SDS011;33676;51.006;17.180;2023-03-22T16:38:40;2.60;;;2.40;;
47912;SDS011;33676;51.006;17.180;2023-03-22T16:41:27;2.50;;;2.30;;
47912;SDS011;33676;51.006;17.180;2023-03-22T16:43:56;2.40;;;2.10;;
47912;SDS011;33676;51.006;17.180;2023-03-22T16:46:25;3.30;;;2.80;;
47912;SDS011;33676;51.006;17.180;2023-03-22T16:48:54;2.50;;;2.30;;
47912;SDS011;33676;51.006;17.180;2023-03-22T16:51:26;2.80;;;2.60;;
47912;SDS011;33676;51.006;17.180;2023-03-22T16:53:54;3.50;;;3.10;;